sensor_id;sensor_type;location;lat;lon;timestamp;P1;durP1;ratioP1;P2;durP2;ratioP2
23163;SDS011;31429;42.674;23.350;2023-02-05T00:00:55;5.53;;;4.80;;
23163;SDS011;31429;42.674;23.350;2023-02-05T00:01:56;4.50;;;4.10;;
23163;SDS011;31429;42.674;23.350;2023-02-05T00:02:57;4.67;;;4.33;;
23163;SDS011;31429;42.674;23.350;2023-02-05T00:03:57;4.73;;;4.33;;
23163;SDS011;31429;42.674;23.350;2023-02-05T00:04:58;6.27;;;4.63;;
23163;SDS011;31429;42.674;23.350;2023-02-05T00:05:58;5.33;;;4.83;;
23163;SDS011;31429;42.674;23.350;2023-02-05T00:06:59;5.23;;;4.83;;
23163;SDS011;31429;42.674;23.350;2023-02-05T00:08:01;5.20;;;4.80;;
23163;SDS011;31429;42.674;23.350;2023-02-05T00:09:02;4.43;;;4.13;;
23163;SDS011;31429;42.674;23.350;2023-02-05T00:10:03;5.40;;;4.83;;
23163;SDS011;31429;42.674;23.350;2023-02-05T00:11:04;4.78;;;4.30;;
23163;SDS011;31429;42.674;23.350;2023-02-05T00:12:11;10.18;;;4.45;;
23163;SDS011;31429;42.674;23.350;2023-02-05T00:13:11;4.40;;;4.00;;
23163;SDS011;31429;42.674;23.350;2023-02-05T00:14:12;4.67;;;4.23;;
23163;SDS011;31429;42.674;23.350;2023-02-05T00:15:13;5.40;;;4.17;;
23163;SDS011;31429;42.674;23.350;2023-02-05T00:16:14;4.57;;;4.17;;
23163;SDS011;31429;42.674;23.350;2023-02-05T00:17:16;4.78;;;4.00;;
23163;SDS011;31429;42.674;23.350;2023-02-05T00:18:17;5.13;;;4.07;;
23163;SDS011;31429;42.674;23.350;2023-02-05T00:19:18;4.90;;;3.87;;
23163;SDS011;31429;42.674;23.350;2023-02-05T00:20:19;4.80;;;3.97;;
23163;SDS011;31429;42.674;23.350;2023-02-05T00:21:20;4.30;;;3.90;;
23163;SDS011;31429;42.674;23.350;2023-02-05T00:22:22;4.05;;;3.67;;
23163;SDS011;31429;42.674;23.350;2023-02-05T00:23:24;4.50;;;4.10;;
23163;SDS011;31429;42.674;23.350;2023-02-05T00:24:24;4.30;;;3.97;;
23163;SDS011;31429;42.674;23.350;2023-02-05T00:25:25;3.83;;;3.53;;
23163;SDS011;31429;42.674;23.350;2023-02-05T00:26:26;4.20;;;3.90;;
23163;SDS011;31429;42.674;23.350;2023-02-05T00:27:26;3.97;;;3.67;;
23163;SDS011;31429;42.674;23.350;2023-02-05T00:28:27;4.23;;;3.83;;
23163;SDS011;31429;42.674;23.350;2023-02-05T00:29:30;3.50;;;3.20;;
23163;SDS011;31429;42.674;23.350;2023-02-05T00:30:30;4.20;;;3.77;;
23163;SDS011;31429;42.674;23.350;2023-02-05T00:31:31;3.77;;;3.33;;
23163;SDS011;31429;42.674;23.350;2023-02-05T00:32:31;4.27;;;3.90;;
23163;SDS011;31429;42.674;23.350;2023-02-05T00:33:32;5.57;;;3.93;;
23163;SDS011;31429;42.674;23.350;2023-02-05T00:34:33;4.65;;;4.25;;
23163;SDS011;31429;42.674;23.350;2023-02-05T00:35:34;4.03;;;3.73;;
23163;SDS011;31429;42.674;23.350;2023-02-05T00:36:34;5.37;;;4.37;;
23163;SDS011;31429;42.674;23.350;2023-02-05T00:37:35;4.40;;;4.00;;
23163;SDS011;31429;42.674;23.350;2023-02-05T00:38:37;4.27;;;3.93;;
23163;SDS011;31429;42.674;23.350;2023-02-05T00:39:38;4.22;;;3.78;;
23163;SDS011;31429;42.674;23.350;2023-02-05T00:40:38;5.10;;;4.60;;
23163;SDS011;31429;42.674;23.350;2023-02-05T00:41:39;5.07;;;4.00;;
23163;SDS011;31429;42.674;23.350;2023-02-05T00:42:40;4.33;;;3.93;;
23163;SDS011;31429;42.674;23.350;2023-02-05T00:43:41;4.93;;;4.43;;
23163;SDS011;31429;42.674;23.350;2023-02-05T00:44:42;4.93;;;4.35;;
23163;SDS011;31429;42.674;23.350;2023-02-05T00:45:42;4.77;;;3.90;;
23163;SDS011;31429;42.674;23.350;2023-02-05T00:46:43;5.37;;;4.87;;
23163;SDS011;31429;42.674;23.350;2023-02-05T00:47:43;3.80;;;3.57;;
23163;SDS011;31429;42.674;23.350;2023-02-05T00:48:44;4.30;;;4.00;;
23163;SDS011;31429;42.674;23.350;2023-02-05T00:49:45;4.50;;;4.10;;
23163;SDS011;31429;42.674;23.350;2023-02-05T00:50:46;4.77;;;4.47;;
23163;SDS011;31429;42.674;23.350;2023-02-05T00:51:48;4.60;;;4.20;;
23163;SDS011;31429;42.674;23.350;2023-02-05T00:52:48;5.20;;;4.70;;
23163;SDS011;31429;42.674;23.350;2023-02-05T00:53:50;4.57;;;4.10;;
23163;SDS011;31429;42.674;23.350;2023-02-05T00:54:51;4.50;;;4.20;;
23163;SDS011;31429;42.674;23.350;2023-02-05T00:55:52;6.75;;;4.43;;
23163;SDS011;31429;42.674;23.350;2023-02-05T00:56:53;6.67;;;4.23;;
23163;SDS011;31429;42.674;23.350;2023-02-05T00:57:53;5.70;;;4.63;;
23163;SDS011;31429;42.674;23.350;2023-02-05T00:58:54;4.47;;;4.07;;
23163;SDS011;31429;42.674;23.350;2023-02-05T00:59:56;4.57;;;4.10;;
23163;SDS011;31429;42.674;23.350;2023-02-05T01:00:57;4.43;;;3.80;;
23163;SDS011;31429;42.674;23.350;2023-02-05T01:01:57;5.30;;;4.67;;
23163;SDS011;31429;42.674;23.350;2023-02-05T01:02:58;5.67;;;4.87;;
23163;SDS011;31429;42.674;23.350;2023-02-05T01:03:59;5.13;;;4.63;;
23163;SDS011;31429;42.674;23.350;2023-02-05T01:05:00;5.03;;;4.33;;
23163;SDS011;31429;42.674;23.350;2023-02-05T01:06:00;6.27;;;4.47;;
23163;SDS011;31429;42.674;23.350;2023-02-05T01:07:02;4.57;;;4.25;;
23163;SDS011;31429;42.674;23.350;2023-02-05T01:08:03;4.20;;;3.80;;
23163;SDS011;31429;42.674;23.350;2023-02-05T01:09:06;6.10;;;4.40;;
23163;SDS011;31429;42.674;23.350;2023-02-05T01:10:07;4.68;;;4.25;;
23163;SDS011;31429;42.674;23.350;2023-02-05T01:11:08;14.70;;;5.00;;
23163;SDS011;31429;42.674;23.350;2023-02-05T01:12:10;4.90;;;4.50;;
23163;SDS011;31429;42.674;23.350;2023-02-05T01:13:13;5.28;;;4.78;;
23163;SDS011;31429;42.674;23.350;2023-02-05T01:14:14;5.25;;;4.75;;
23163;SDS011;31429;42.674;23.350;2023-02-05T01:15:15;6.80;;;4.93;;
23163;SDS011;31429;42.674;23.350;2023-02-05T01:16:16;5.13;;;4.70;;
23163;SDS011;31429;42.674;23.350;2023-02-05T01:17:17;5.40;;;5.00;;
23163;SDS011;31429;42.674;23.350;2023-02-05T01:18:17;12.40;;;5.00;;
23163;SDS011;31429;42.674;23.350;2023-02-05T01:19:18;7.90;;;4.07;;
23163;SDS011;31429;42.674;23.350;2023-02-05T01:20:19;6.13;;;4.53;;
23163;SDS011;31429;42.674;23.350;2023-02-05T01:21:21;5.00;;;4.50;;
23163;SDS011;31429;42.674;23.350;2023-02-05T01:22:23;5.07;;;4.65;;
23163;SDS011;31429;42.674;23.350;2023-02-05T01:23:24;5.20;;;4.63;;
23163;SDS011;31429;42.674;23.350;2023-02-05T01:24:26;5.37;;;4.87;;
23163;SDS011;31429;42.674;23.350;2023-02-05T01:25:26;5.93;;;5.00;;
23163;SDS011;31429;42.674;23.350;2023-02-05T01:26:27;5.30;;;4.80;;
23163;SDS011;31429;42.674;23.350;2023-02-05T01:27:28;5.33;;;4.80;;
23163;SDS011;31429;42.674;23.350;2023-02-05T01:28:28;5.93;;;5.40;;
23163;SDS011;31429;42.674;23.350;2023-02-05T01:29:29;4.90;;;4.50;;
23163;SDS011;31429;42.674;23.350;2023-02-05T01:30:30;5.07;;;4.63;;
23163;SDS011;31429;42.674;23.350;2023-02-05T01:31:30;5.20;;;4.73;;
23163;SDS011;31429;42.674;23.350;2023-02-05T01:32:32;5.25;;;4.75;;
23163;SDS011;31429;42.674;23.350;2023-02-05T01:33:33;5.03;;;4.53;;
23163;SDS011;31429;42.674;23.350;2023-02-05T01:34:33;5.70;;;4.40;;
23163;SDS011;31429;42.674;23.350;2023-02-05T01:35:34;5.10;;;4.65;;
23163;SDS011;31429;42.674;23.350;2023-02-05T01:36:35;5.40;;;4.70;;
23163;SDS011;31429;42.674;23.350;2023-02-05T01:37:36;5.43;;;4.93;;
23163;SDS011;31429;42.674;23.350;2023-02-05T01:38:36;5.63;;;5.07;;
23163;SDS011;31429;42.674;23.350;2023-02-05T01:39:38;6.43;;;4.80;;
23163;SDS011;31429;42.674;23.350;2023-02-05T01:40:39;5.30;;;4.78;;
23163;SDS011;31429;42.674;23.350;2023-02-05T01:41:40;5.25;;;4.75;;
23163;SDS011;31429;42.674;23.350;2023-02-05T01:42:43;6.57;;;5.00;;
23163;SDS011;31429;42.674;23.350;2023-02-05T01:46:44;5.57;;;4.97;;
23163;SDS011;31429;42.674;23.350;2023-02-05T01:47:45;5.30;;;4.80;;
23163;SDS011;31429;42.674;23.350;2023-02-05T01:48:47;5.43;;;5.00;;
23163;SDS011;31429;42.674;23.350;2023-02-05T01:49:53;5.30;;;4.80;;
23163;SDS011;31429;42.674;23.350;2023-02-05T01:50:54;7.07;;;4.80;;
23163;SDS011;31429;42.674;23.350;2023-02-05T01:51:58;5.18;;;4.68;;
23163;SDS011;31429;42.674;23.350;2023-02-05T01:53:04;5.47;;;5.00;;
23163;SDS011;31429;42.674;23.350;2023-02-05T01:54:07;5.75;;;5.15;;
23163;SDS011;31429;42.674;23.350;2023-02-05T01:55:09;6.00;;;5.10;;
23163;SDS011;31429;42.674;23.350;2023-02-05T01:56:13;5.47;;;5.05;;
23163;SDS011;31429;42.674;23.350;2023-02-05T01:57:19;6.40;;;5.38;;
23163;SDS011;31429;42.674;23.350;2023-02-05T01:58:23;6.28;;;5.13;;
23163;SDS011;31429;42.674;23.350;2023-02-05T01:59:29;5.30;;;4.90;;
23163;SDS011;31429;42.674;23.350;2023-02-05T02:00:33;5.40;;;5.00;;
23163;SDS011;31429;42.674;23.350;2023-02-05T02:01:33;5.43;;;4.87;;
23163;SDS011;31429;42.674;23.350;2023-02-05T02:02:35;5.28;;;4.47;;
23163;SDS011;31429;42.674;23.350;2023-02-05T02:03:36;4.78;;;4.40;;
23163;SDS011;31429;42.674;23.350;2023-02-05T02:04:40;5.13;;;4.72;;
23163;SDS011;31429;42.674;23.350;2023-02-05T02:05:43;5.20;;;4.70;;
23163;SDS011;31429;42.674;23.350;2023-02-05T02:06:43;5.20;;;4.70;;
23163;SDS011;31429;42.674;23.350;2023-02-05T02:07:44;5.37;;;4.87;;
23163;SDS011;31429;42.674;23.350;2023-02-05T02:08:45;4.63;;;4.20;;
23163;SDS011;31429;42.674;23.350;2023-02-05T02:09:45;5.07;;;4.67;;
23163;SDS011;31429;42.674;23.350;2023-02-05T02:10:49;4.93;;;4.53;;
23163;SDS011;31429;42.674;23.350;2023-02-05T02:11:52;5.63;;;5.13;;
23163;SDS011;31429;42.674;23.350;2023-02-05T02:12:54;5.25;;;4.60;;
23163;SDS011;31429;42.674;23.350;2023-02-05T02:13:56;5.10;;;4.60;;
23163;SDS011;31429;42.674;23.350;2023-02-05T02:15:01;5.82;;;4.47;;
23163;SDS011;31429;42.674;23.350;2023-02-05T02:16:05;5.00;;;4.50;;
23163;SDS011;31429;42.674;23.350;2023-02-05T02:17:07;4.72;;;4.32;;
23163;SDS011;31429;42.674;23.350;2023-02-05T02:18:10;9.65;;;4.75;;
23163;SDS011;31429;42.674;23.350;2023-02-05T02:19:28;5.15;;;4.65;;
23163;SDS011;31429;42.674;23.350;2023-02-05T02:20:36;5.50;;;5.00;;
23163;SDS011;31429;42.674;23.350;2023-02-05T02:21:45;5.20;;;4.80;;
23163;SDS011;31429;42.674;23.350;2023-02-05T02:23:10;5.50;;;4.80;;
23163;SDS011;31429;42.674;23.350;2023-02-05T02:25:56;5.45;;;4.95;;
23163;SDS011;31429;42.674;23.350;2023-02-05T02:27:35;6.05;;;5.35;;
23163;SDS011;31429;42.674;23.350;2023-02-05T02:28:40;5.40;;;4.90;;
23163;SDS011;31429;42.674;23.350;2023-02-05T02:29:46;5.95;;;4.93;;
23163;SDS011;31429;42.674;23.350;2023-02-05T02:30:54;7.28;;;4.38;;
23163;SDS011;31429;42.674;23.350;2023-02-05T02:32:02;5.60;;;5.10;;
23163;SDS011;31429;42.674;23.350;2023-02-05T02:33:13;7.03;;;4.97;;
23163;SDS011;31429;42.674;23.350;2023-02-05T02:34:19;5.28;;;4.78;;
23163;SDS011;31429;42.674;23.350;2023-02-05T02:35:26;5.50;;;5.00;;
23163;SDS011;31429;42.674;23.350;2023-02-05T02:36:32;5.60;;;4.88;;
23163;SDS011;31429;42.674;23.350;2023-02-05T02:37:36;6.97;;;5.60;;
23163;SDS011;31429;42.674;23.350;2023-02-05T02:38:45;5.97;;;5.10;;
23163;SDS011;31429;42.674;23.350;2023-02-05T02:39:55;5.65;;;5.07;;
23163;SDS011;31429;42.674;23.350;2023-02-05T02:41:00;5.93;;;5.13;;
23163;SDS011;31429;42.674;23.350;2023-02-05T02:42:08;5.03;;;4.63;;
23163;SDS011;31429;42.674;23.350;2023-02-05T02:43:16;5.65;;;5.15;;
23163;SDS011;31429;42.674;23.350;2023-02-05T02:44:22;5.68;;;4.38;;
23163;SDS011;31429;42.674;23.350;2023-02-05T02:45:28;6.70;;;5.25;;
23163;SDS011;31429;42.674;23.350;2023-02-05T02:46:34;5.45;;;4.95;;
23163;SDS011;31429;42.674;23.350;2023-02-05T02:47:39;6.05;;;5.07;;
23163;SDS011;31429;42.674;23.350;2023-02-05T02:48:45;6.18;;;4.72;;
23163;SDS011;31429;42.674;23.350;2023-02-05T02:49:49;5.07;;;4.53;;
23163;SDS011;31429;42.674;23.350;2023-02-05T02:50:53;5.88;;;5.38;;
23163;SDS011;31429;42.674;23.350;2023-02-05T02:51:56;5.82;;;5.07;;
23163;SDS011;31429;42.674;23.350;2023-02-05T02:53:00;5.88;;;5.18;;
23163;SDS011;31429;42.674;23.350;2023-02-05T02:54:05;5.50;;;5.00;;
23163;SDS011;31429;42.674;23.350;2023-02-05T02:55:09;6.10;;;5.40;;
23163;SDS011;31429;42.674;23.350;2023-02-05T02:56:12;6.15;;;5.10;;
23163;SDS011;31429;42.674;23.350;2023-02-05T02:57:14;6.82;;;5.35;;
23163;SDS011;31429;42.674;23.350;2023-02-05T02:58:21;5.70;;;5.20;;
23163;SDS011;31429;42.674;23.350;2023-02-05T02:59:23;5.95;;;4.88;;
23163;SDS011;31429;42.674;23.350;2023-02-05T03:00:28;5.45;;;5.05;;
23163;SDS011;31429;42.674;23.350;2023-02-05T03:01:30;7.20;;;5.50;;
23163;SDS011;31429;42.674;23.350;2023-02-05T03:02:33;8.50;;;5.68;;
23163;SDS011;31429;42.674;23.350;2023-02-05T03:03:37;5.80;;;5.07;;
23163;SDS011;31429;42.674;23.350;2023-02-05T03:04:42;5.78;;;4.63;;
23163;SDS011;31429;42.674;23.350;2023-02-05T03:05:48;6.13;;;4.85;;
23163;SDS011;31429;42.674;23.350;2023-02-05T03:06:49;5.43;;;4.93;;
23163;SDS011;31429;42.674;23.350;2023-02-05T03:07:56;5.85;;;5.28;;
23163;SDS011;31429;42.674;23.350;2023-02-05T03:09:02;5.18;;;4.68;;
23163;SDS011;31429;42.674;23.350;2023-02-05T03:10:10;5.95;;;5.35;;
23163;SDS011;31429;42.674;23.350;2023-02-05T03:11:17;6.18;;;5.45;;
23163;SDS011;31429;42.674;23.350;2023-02-05T03:12:18;7.37;;;5.30;;
23163;SDS011;31429;42.674;23.350;2023-02-05T03:13:21;5.07;;;4.57;;
23163;SDS011;31429;42.674;23.350;2023-02-05T03:14:22;5.15;;;4.57;;
23163;SDS011;31429;42.674;23.350;2023-02-05T03:15:22;5.90;;;5.30;;
23163;SDS011;31429;42.674;23.350;2023-02-05T03:16:24;5.70;;;5.20;;
23163;SDS011;31429;42.674;23.350;2023-02-05T03:17:26;5.72;;;5.18;;
23163;SDS011;31429;42.674;23.350;2023-02-05T03:18:28;5.53;;;4.93;;
23163;SDS011;31429;42.674;23.350;2023-02-05T03:19:29;6.15;;;5.03;;
23163;SDS011;31429;42.674;23.350;2023-02-05T03:20:31;5.82;;;5.00;;
23163;SDS011;31429;42.674;23.350;2023-02-05T03:21:37;5.25;;;4.75;;
23163;SDS011;31429;42.674;23.350;2023-02-05T03:22:41;5.53;;;5.03;;
23163;SDS011;31429;42.674;23.350;2023-02-05T03:23:42;4.90;;;4.40;;
23163;SDS011;31429;42.674;23.350;2023-02-05T03:24:43;5.78;;;5.28;;
23163;SDS011;31429;42.674;23.350;2023-02-05T03:25:44;5.57;;;5.00;;
23163;SDS011;31429;42.674;23.350;2023-02-05T03:26:45;6.17;;;5.57;;
23163;SDS011;31429;42.674;23.350;2023-02-05T03:27:45;5.93;;;5.33;;
23163;SDS011;31429;42.674;23.350;2023-02-05T03:28:48;6.07;;;5.00;;
23163;SDS011;31429;42.674;23.350;2023-02-05T03:29:49;6.13;;;5.38;;
23163;SDS011;31429;42.674;23.350;2023-02-05T03:30:52;5.50;;;4.97;;
23163;SDS011;31429;42.674;23.350;2023-02-05T03:32:00;6.28;;;5.40;;
23163;SDS011;31429;42.674;23.350;2023-02-05T03:33:15;5.78;;;5.10;;
23163;SDS011;31429;42.674;23.350;2023-02-05T03:34:29;6.20;;;5.45;;
23163;SDS011;31429;42.674;23.350;2023-02-05T03:35:40;5.60;;;5.10;;
23163;SDS011;31429;42.674;23.350;2023-02-05T03:36:48;6.00;;;5.30;;
23163;SDS011;31429;42.674;23.350;2023-02-05T03:38:05;5.72;;;4.78;;
23163;SDS011;31429;42.674;23.350;2023-02-05T03:39:20;5.53;;;5.03;;
23163;SDS011;31429;42.674;23.350;2023-02-05T03:40:28;6.13;;;5.53;;
23163;SDS011;31429;42.674;23.350;2023-02-05T03:41:35;7.05;;;5.55;;
23163;SDS011;31429;42.674;23.350;2023-02-05T03:43:05;6.85;;;5.93;;
23163;SDS011;31429;42.674;23.350;2023-02-05T03:44:14;6.22;;;5.43;;
23163;SDS011;31429;42.674;23.350;2023-02-05T03:45:27;5.43;;;4.93;;
23163;SDS011;31429;42.674;23.350;2023-02-05T03:46:37;6.32;;;5.72;;
23163;SDS011;31429;42.674;23.350;2023-02-05T03:47:48;5.65;;;5.15;;
23163;SDS011;31429;42.674;23.350;2023-02-05T03:49:03;5.95;;;5.35;;
23163;SDS011;31429;42.674;23.350;2023-02-05T03:50:11;6.35;;;5.75;;
23163;SDS011;31429;42.674;23.350;2023-02-05T03:51:22;6.00;;;5.40;;
23163;SDS011;31429;42.674;23.350;2023-02-05T03:52:33;5.97;;;5.38;;
23163;SDS011;31429;42.674;23.350;2023-02-05T03:53:38;6.00;;;5.45;;
23163;SDS011;31429;42.674;23.350;2023-02-05T03:54:45;6.57;;;5.25;;
23163;SDS011;31429;42.674;23.350;2023-02-05T03:55:51;6.60;;;5.97;;
23163;SDS011;31429;42.674;23.350;2023-02-05T03:56:59;5.82;;;5.22;;
23163;SDS011;31429;42.674;23.350;2023-02-05T03:58:06;5.65;;;5.18;;
23163;SDS011;31429;42.674;23.350;2023-02-05T03:59:10;5.78;;;5.13;;
23163;SDS011;31429;42.674;23.350;2023-02-05T04:00:15;6.53;;;5.57;;
23163;SDS011;31429;42.674;23.350;2023-02-05T04:01:16;6.35;;;5.30;;
23163;SDS011;31429;42.674;23.350;2023-02-05T04:02:18;5.45;;;4.75;;
23163;SDS011;31429;42.674;23.350;2023-02-05T04:03:21;6.07;;;5.43;;
23163;SDS011;31429;42.674;23.350;2023-02-05T04:04:22;5.72;;;5.22;;
23163;SDS011;31429;42.674;23.350;2023-02-05T04:05:22;5.93;;;5.33;;
23163;SDS011;31429;42.674;23.350;2023-02-05T04:06:24;6.28;;;5.63;;
23163;SDS011;31429;42.674;23.350;2023-02-05T04:07:25;6.20;;;5.60;;
23163;SDS011;31429;42.674;23.350;2023-02-05T04:08:25;5.97;;;5.37;;
23163;SDS011;31429;42.674;23.350;2023-02-05T04:09:26;5.27;;;4.77;;
23163;SDS011;31429;42.674;23.350;2023-02-05T04:10:27;5.83;;;5.03;;
23163;SDS011;31429;42.674;23.350;2023-02-05T04:11:27;7.37;;;5.50;;
23163;SDS011;31429;42.674;23.350;2023-02-05T04:12:28;5.90;;;5.30;;
23163;SDS011;31429;42.674;23.350;2023-02-05T04:13:29;5.60;;;5.10;;
23163;SDS011;31429;42.674;23.350;2023-02-05T04:14:31;7.13;;;4.97;;
23163;SDS011;31429;42.674;23.350;2023-02-05T04:15:31;7.30;;;5.20;;
23163;SDS011;31429;42.674;23.350;2023-02-05T04:16:32;6.20;;;5.33;;
23163;SDS011;31429;42.674;23.350;2023-02-05T04:17:33;5.27;;;4.67;;
23163;SDS011;31429;42.674;23.350;2023-02-05T04:18:33;6.23;;;5.63;;
23163;SDS011;31429;42.674;23.350;2023-02-05T04:19:34;6.90;;;4.97;;
23163;SDS011;31429;42.674;23.350;2023-02-05T04:20:34;6.50;;;5.53;;
23163;SDS011;31429;42.674;23.350;2023-02-05T04:21:35;5.93;;;5.33;;
23163;SDS011;31429;42.674;23.350;2023-02-05T04:22:36;6.53;;;5.40;;
23163;SDS011;31429;42.674;23.350;2023-02-05T04:23:36;5.60;;;5.10;;
23163;SDS011;31429;42.674;23.350;2023-02-05T04:24:37;10.37;;;5.50;;
23163;SDS011;31429;42.674;23.350;2023-02-05T04:25:38;7.37;;;5.40;;
23163;SDS011;31429;42.674;23.350;2023-02-05T04:26:39;7.37;;;5.37;;
23163;SDS011;31429;42.674;23.350;2023-02-05T04:27:39;5.57;;;5.07;;
23163;SDS011;31429;42.674;23.350;2023-02-05T04:28:40;5.63;;;4.90;;
23163;SDS011;31429;42.674;23.350;2023-02-05T04:29:42;6.10;;;5.60;;
23163;SDS011;31429;42.674;23.350;2023-02-05T04:30:43;6.47;;;5.38;;
23163;SDS011;31429;42.674;23.350;2023-02-05T04:31:43;7.87;;;5.70;;
23163;SDS011;31429;42.674;23.350;2023-02-05T04:32:44;6.20;;;5.10;;
23163;SDS011;31429;42.674;23.350;2023-02-05T04:33:45;6.43;;;5.00;;
23163;SDS011;31429;42.674;23.350;2023-02-05T04:34:45;5.57;;;5.07;;
23163;SDS011;31429;42.674;23.350;2023-02-05T04:35:46;6.10;;;5.33;;
23163;SDS011;31429;42.674;23.350;2023-02-05T04:36:47;5.80;;;5.30;;
23163;SDS011;31429;42.674;23.350;2023-02-05T04:37:47;6.80;;;5.20;;
23163;SDS011;31429;42.674;23.350;2023-02-05T04:38:48;7.30;;;5.33;;
23163;SDS011;31429;42.674;23.350;2023-02-05T04:39:49;5.77;;;5.30;;
23163;SDS011;31429;42.674;23.350;2023-02-05T04:40:49;5.93;;;5.43;;
23163;SDS011;31429;42.674;23.350;2023-02-05T04:41:50;6.03;;;4.87;;
23163;SDS011;31429;42.674;23.350;2023-02-05T04:42:50;5.87;;;5.37;;
23163;SDS011;31429;42.674;23.350;2023-02-05T04:43:51;6.53;;;5.60;;
23163;SDS011;31429;42.674;23.350;2023-02-05T04:44:53;6.70;;;5.67;;
23163;SDS011;31429;42.674;23.350;2023-02-05T04:45:54;6.07;;;5.47;;
23163;SDS011;31429;42.674;23.350;2023-02-05T04:46:55;6.60;;;5.10;;
23163;SDS011;31429;42.674;23.350;2023-02-05T04:47:55;6.07;;;5.47;;
23163;SDS011;31429;42.674;23.350;2023-02-05T04:48:56;6.17;;;5.50;;
23163;SDS011;31429;42.674;23.350;2023-02-05T04:49:57;6.07;;;5.47;;
23163;SDS011;31429;42.674;23.350;2023-02-05T04:50:57;6.20;;;5.60;;
23163;SDS011;31429;42.674;23.350;2023-02-05T04:51:58;15.40;;;5.17;;
23163;SDS011;31429;42.674;23.350;2023-02-05T04:52:59;6.00;;;5.40;;
23163;SDS011;31429;42.674;23.350;2023-02-05T04:54:03;5.95;;;5.35;;
23163;SDS011;31429;42.674;23.350;2023-02-05T04:55:04;6.95;;;6.35;;
23163;SDS011;31429;42.674;23.350;2023-02-05T04:56:06;6.80;;;6.20;;
23163;SDS011;31429;42.674;23.350;2023-02-05T04:57:08;6.57;;;5.93;;
23163;SDS011;31429;42.674;23.350;2023-02-05T04:58:09;6.87;;;6.00;;
23163;SDS011;31429;42.674;23.350;2023-02-05T04:59:09;6.40;;;5.60;;
23163;SDS011;31429;42.674;23.350;2023-02-05T05:00:12;6.10;;;5.50;;
23163;SDS011;31429;42.674;23.350;2023-02-05T05:01:14;5.93;;;5.28;;
23163;SDS011;31429;42.674;23.350;2023-02-05T05:02:16;6.20;;;5.60;;
23163;SDS011;31429;42.674;23.350;2023-02-05T05:03:17;6.20;;;5.60;;
23163;SDS011;31429;42.674;23.350;2023-02-05T05:04:18;6.93;;;6.17;;
23163;SDS011;31429;42.674;23.350;2023-02-05T05:05:18;6.50;;;5.80;;
23163;SDS011;31429;42.674;23.350;2023-02-05T05:06:19;5.87;;;5.27;;
23163;SDS011;31429;42.674;23.350;2023-02-05T05:07:20;6.05;;;5.05;;
23163;SDS011;31429;42.674;23.350;2023-02-05T05:08:21;5.97;;;5.37;;
23163;SDS011;31429;42.674;23.350;2023-02-05T05:09:21;5.07;;;4.67;;
23163;SDS011;31429;42.674;23.350;2023-02-05T05:10:23;5.40;;;4.90;;
23163;SDS011;31429;42.674;23.350;2023-02-05T05:11:24;6.63;;;5.53;;
23163;SDS011;31429;42.674;23.350;2023-02-05T05:12:25;5.93;;;5.07;;
23163;SDS011;31429;42.674;23.350;2023-02-05T05:13:25;7.73;;;5.47;;
23163;SDS011;31429;42.674;23.350;2023-02-05T05:14:26;6.47;;;5.43;;
23163;SDS011;31429;42.674;23.350;2023-02-05T05:15:28;5.78;;;5.18;;
23163;SDS011;31429;42.674;23.350;2023-02-05T05:16:29;5.90;;;5.40;;
23163;SDS011;31429;42.674;23.350;2023-02-05T05:17:30;5.40;;;5.00;;
23163;SDS011;31429;42.674;23.350;2023-02-05T05:18:32;5.88;;;5.38;;
23163;SDS011;31429;42.674;23.350;2023-02-05T05:19:34;5.43;;;4.93;;
23163;SDS011;31429;42.674;23.350;2023-02-05T05:20:35;5.68;;;5.10;;
23163;SDS011;31429;42.674;23.350;2023-02-05T05:21:35;6.17;;;5.27;;
23163;SDS011;31429;42.674;23.350;2023-02-05T05:22:36;5.88;;;5.15;;
23163;SDS011;31429;42.674;23.350;2023-02-05T05:23:37;9.27;;;5.73;;
23163;SDS011;31429;42.674;23.350;2023-02-05T05:24:38;6.57;;;5.30;;
23163;SDS011;31429;42.674;23.350;2023-02-05T05:25:40;6.60;;;5.67;;
23163;SDS011;31429;42.674;23.350;2023-02-05T05:26:41;8.20;;;6.20;;
23163;SDS011;31429;42.674;23.350;2023-02-05T05:27:44;7.18;;;5.57;;
23163;SDS011;31429;42.674;23.350;2023-02-05T05:28:44;7.43;;;5.93;;
23163;SDS011;31429;42.674;23.350;2023-02-05T05:29:45;5.97;;;5.37;;
23163;SDS011;31429;42.674;23.350;2023-02-05T05:30:47;5.93;;;5.33;;
23163;SDS011;31429;42.674;23.350;2023-02-05T05:31:50;6.18;;;5.57;;
23163;SDS011;31429;42.674;23.350;2023-02-05T05:32:51;5.60;;;5.10;;
23163;SDS011;31429;42.674;23.350;2023-02-05T05:33:52;5.63;;;4.80;;
23163;SDS011;31429;42.674;23.350;2023-02-05T05:34:52;6.17;;;5.47;;
23163;SDS011;31429;42.674;23.350;2023-02-05T05:35:53;6.07;;;5.23;;
23163;SDS011;31429;42.674;23.350;2023-02-05T05:36:54;6.33;;;5.40;;
23163;SDS011;31429;42.674;23.350;2023-02-05T05:37:55;6.10;;;5.47;;
23163;SDS011;31429;42.674;23.350;2023-02-05T05:38:55;5.83;;;5.23;;
23163;SDS011;31429;42.674;23.350;2023-02-05T05:40:16;6.03;;;5.40;;
23163;SDS011;31429;42.674;23.350;2023-02-05T05:41:36;6.40;;;5.70;;
23163;SDS011;31429;42.674;23.350;2023-02-05T05:42:55;7.72;;;5.97;;
23163;SDS011;31429;42.674;23.350;2023-02-05T05:44:14;6.63;;;5.40;;
23163;SDS011;31429;42.674;23.350;2023-02-05T05:45:15;5.47;;;4.87;;
23163;SDS011;31429;42.674;23.350;2023-02-05T05:46:17;6.53;;;5.80;;
23163;SDS011;31429;42.674;23.350;2023-02-05T05:47:21;5.38;;;4.88;;
23163;SDS011;31429;42.674;23.350;2023-02-05T05:48:22;7.60;;;5.47;;
23163;SDS011;31429;42.674;23.350;2023-02-05T05:49:23;6.77;;;5.70;;
23163;SDS011;31429;42.674;23.350;2023-02-05T05:50:23;6.73;;;5.73;;
23163;SDS011;31429;42.674;23.350;2023-02-05T05:51:25;7.97;;;5.80;;
23163;SDS011;31429;42.674;23.350;2023-02-05T05:52:26;6.18;;;5.53;;
23163;SDS011;31429;42.674;23.350;2023-02-05T05:53:27;7.20;;;5.67;;
23163;SDS011;31429;42.674;23.350;2023-02-05T05:54:28;6.10;;;5.50;;
23163;SDS011;31429;42.674;23.350;2023-02-05T05:55:28;6.17;;;5.57;;
23163;SDS011;31429;42.674;23.350;2023-02-05T05:56:29;6.27;;;5.67;;
23163;SDS011;31429;42.674;23.350;2023-02-05T05:57:30;6.30;;;5.70;;
23163;SDS011;31429;42.674;23.350;2023-02-05T05:58:30;6.10;;;5.53;;
23163;SDS011;31429;42.674;23.350;2023-02-05T05:59:31;6.97;;;5.47;;
23163;SDS011;31429;42.674;23.350;2023-02-05T06:00:32;6.90;;;6.20;;
23163;SDS011;31429;42.674;23.350;2023-02-05T06:01:34;6.30;;;5.70;;
23163;SDS011;31429;42.674;23.350;2023-02-05T06:02:38;6.53;;;5.80;;
23163;SDS011;31429;42.674;23.350;2023-02-05T06:03:39;6.18;;;5.60;;
23163;SDS011;31429;42.674;23.350;2023-02-05T06:04:39;6.03;;;5.43;;
23163;SDS011;31429;42.674;23.350;2023-02-05T06:05:40;7.10;;;5.93;;
23163;SDS011;31429;42.674;23.350;2023-02-05T06:06:41;7.20;;;5.73;;
23163;SDS011;31429;42.674;23.350;2023-02-05T06:07:41;6.77;;;5.80;;
23163;SDS011;31429;42.674;23.350;2023-02-05T06:08:42;6.87;;;6.17;;
23163;SDS011;31429;42.674;23.350;2023-02-05T06:09:42;5.93;;;5.40;;
23163;SDS011;31429;42.674;23.350;2023-02-05T06:10:43;6.87;;;6.07;;
23163;SDS011;31429;42.674;23.350;2023-02-05T06:11:44;6.70;;;5.63;;
23163;SDS011;31429;42.674;23.350;2023-02-05T06:12:44;8.63;;;6.50;;
23163;SDS011;31429;42.674;23.350;2023-02-05T06:13:45;10.73;;;8.23;;
23163;SDS011;31429;42.674;23.350;2023-02-05T06:14:46;8.37;;;6.30;;
23163;SDS011;31429;42.674;23.350;2023-02-05T06:15:46;5.90;;;5.30;;
23163;SDS011;31429;42.674;23.350;2023-02-05T06:16:49;6.95;;;5.72;;
23163;SDS011;31429;42.674;23.350;2023-02-05T06:17:51;7.07;;;5.65;;